Latest Weather Observations for Mount Lofty

IDS60901

Issued at 10:41 am CST Tuesday 18 June 2019 (issued every 10 minutes, with the page automatically refreshed every 10 minutes)

About weather observations | Map of Adelaide area stations | Latest observations for Adelaide area | Other Formats
Station Details ID: 023842 Name: MOUNT LOFTY Lat: -34.98 Lon: 138.71 Height: 685.0 m
Data from the previous 72 hours. | See also: Recent months at Mount Lofty
Date/Time
CST
Temp
°C
App
Temp
°C
Dew
Point
°C
Rel
Hum
%
Delta-T
°C
Wind Press
QNH
hPa
Press
MSL
hPa
Rain since
9am
mm
Dir  Spd
km/h
Gust
km/h
Spd
kts
Gust
kts
18/10:30am 6.7 4.2 3.7 81 1.3 WSW 6 19 3 10 - - 0.2
18/10:00am 6.2 3.6 4.0 86 1.0 SW 7 15 4 8 - - 0.2
18/09:30am 5.4 2.6 3.4 87 0.9 WSW 7 17 4 9 - - 0.0
18/09:00am 5.0 2.2 3.2 88 0.8 WSW 7 19 4 10 - - 11.4
18/08:30am 4.5 1.2 2.5 87 0.8 SW 9 17 5 9 - - 11.4
18/08:00am 3.9 0.6 2.4 90 0.6 SSW 9 17 5 9 - - 11.4
18/07:30am 4.1 0.5 3.1 93 0.4 SW 11 22 6 12 - - 11.4
18/07:00am 4.0 1.3 3.6 97 0.2 WSW 7 17 4 9 - - 11.4
18/06:30am 4.4 1.3 3.8 96 0.3 WSW 9 22 5 12 - - 11.4
18/06:00am 4.7 2.1 4.3 97 0.2 W 7 15 4 8 - - 11.2
18/05:30am 4.5 1.5 3.9 96 0.3 W 9 20 5 11 - - 11.2
18/05:00am 4.7 1.3 4.0 95 0.3 WSW 11 22 6 12 - - 11.2
18/04:30am 4.8 1.4 4.1 95 0.3 WSW 11 20 6 11 - - 11.2
18/04:00am 4.9 1.9 4.2 95 0.3 W 9 20 5 11 - - 11.2
18/03:30am 4.9 1.9 4.3 96 0.3 W 9 19 5 10 - - 11.2
18/03:00am 5.4 2.5 4.8 96 0.3 W 9 20 5 11 - - 11.2
18/02:30am 5.2 1.9 4.3 94 0.4 W 11 24 6 13 - - 11.2
18/02:00am 5.1 2.2 4.7 97 0.2 W 9 17 5 9 - - 11.2
18/01:30am 5.5 2.4 5.4 99 0.0 W 11 28 6 15 - - 11.2
18/01:00am 6.4 3.1 6.3 99 0.0 W 13 28 7 15 - - 11.2
18/12:30am 7.0 3.8 6.9 99 0.0 W 13 26 7 14 - - 11.0
18/12:00am 7.3 4.2 7.2 99 0.0 W 13 26 7 14 - - 10.8
 
Date/Time
CST
Temp
°C
App
Temp
°C
Dew
Point
°C
Rel
Hum
%
Delta-T
°C
Wind Press
QNH
hPa
Press
MSL
hPa
Rain since
9am
mm
Dir  Spd
km/h
Gust
km/h
Spd
kts
Gust
kts
17/11:30pm 7.3 4.2 7.2 99 0.0 W 13 35 7 19 - - 10.0
17/11:00pm 7.1 2.6 7.0 99 0.0 WNW 20 37 11 20 - - 3.2
17/10:30pm 6.8 1.8 6.5 98 0.1 WNW 22 43 12 23 - - 1.6
17/10:00pm 6.8 2.4 6.5 98 0.1 NW 19 33 10 18 - - 0.2
17/09:30pm 6.8 2.4 6.4 97 0.2 WNW 19 33 10 18 - - 0.2
17/09:00pm 6.8 2.3 6.1 95 0.3 NW 19 35 10 19 - - 0.2
17/08:30pm 6.8 2.3 6.1 95 0.3 NW 19 32 10 17 - - 0.2
17/08:00pm 6.9 2.4 6.0 94 0.4 NW 19 32 10 17 - - 0.2
17/07:30pm 7.0 2.4 5.6 91 0.7 NW 19 32 10 17 - - 0.2
17/06:30pm 7.0 3.6 5.8 92 0.6 NW 13 - 7 - - - -
17/06:00pm 7.0 3.7 6.3 95 0.3 NW 13 - 7 - - - -
17/05:30pm 7.1 3.8 6.5 96 0.3 NW 13 26 7 14 - - 0.2
17/05:00pm 7.2 3.5 6.3 94 0.4 WNW 15 30 8 16 - - 0.2
17/04:30pm 7.5 3.8 6.1 91 0.7 NW 15 28 8 15 - - 0.2
17/04:00pm 7.5 3.8 6.4 93 0.5 WNW 15 24 8 13 - - 0.2
17/03:30pm 6.7 2.9 6.0 95 0.3 WNW 15 32 8 17 - - 0.2
17/03:00pm 6.9 2.9 6.6 98 0.1 NW 17 30 9 16 - - 0.2
17/02:30pm 7.1 3.2 7.0 99 0.0 WNW 17 30 9 16 - - 0.2
17/02:00pm 7.2 4.1 7.1 99 0.0 WNW 13 24 7 13 - - 0.0
17/01:30pm 7.5 3.7 7.4 99 0.0 WNW 17 33 9 18 - - 0.0
17/01:00pm 7.7 3.5 7.6 99 0.0 WNW 19 33 10 18 - - 0.0
17/12:30pm 7.9 4.2 7.8 99 0.0 WNW 17 28 9 15 - - 0.0
17/12:00pm 7.7 3.5 7.6 99 0.0 WNW 19 39 10 21 - - 0.0
17/11:30am 7.2 3.3 7.1 99 0.0 WNW 17 28 9 15 - - 0.0
17/11:00am 7.0 3.4 6.9 99 0.0 NW 15 24 8 13 - - 0.0
17/10:30am 6.7 3.4 6.6 99 0.0 NW 13 22 7 12 - - 0.0
17/10:00am 6.3 3.0 6.2 99 0.0 NW 13 22 7 12 - - 0.0
17/09:30am 6.3 2.9 6.0 98 0.1 NW 13 24 7 13 - - 0.0
17/09:00am 6.3 2.9 6.0 98 0.1 NW 13 22 7 12 - - 0.0
17/08:30am 5.8 2.3 5.4 97 0.2 NW 13 20 7 11 - - 0.0
17/08:00am 5.7 1.6 4.5 92 0.5 NW 15 22 8 12 - - 0.0
17/07:30am 5.6 1.9 4.2 91 0.6 NW 13 20 7 11 - - 0.0
17/07:00am 5.9 2.2 4.2 89 0.8 NW 13 24 7 13 - - 0.0
17/06:30am 6.1 2.3 3.9 86 1.0 NW 13 22 7 12 - - 0.0
17/06:00am 6.5 2.7 4.0 84 1.1 NW 13 22 7 12 - - 0.0
17/05:30am 6.6 2.4 3.9 83 1.2 NNW 15 22 8 12 - - 0.0
17/05:00am 6.6 2.8 3.9 83 1.2 NW 13 22 7 12 - - 0.0
17/04:30am 6.7 3.3 4.0 83 1.2 NW 11 22 6 12 - - 0.0
17/04:00am 6.9 3.2 4.4 84 1.1 NW 13 22 7 12 - - 0.0
17/03:30am 6.8 3.5 4.5 85 1.0 NW 11 19 6 10 - - 0.0
17/03:00am 6.8 3.5 4.6 86 1.0 NW 11 17 6 9 - - 0.0
17/02:30am 7.0 3.7 4.5 84 1.1 NW 11 17 6 9 - - 0.0
17/02:00am 7.1 4.2 4.6 84 1.1 NW 9 17 5 9 - - 0.0
17/01:30am 7.4 4.2 4.9 84 1.1 NW 11 17 6 9 - - 0.0
17/01:00am 7.0 3.7 4.7 85 1.0 NW 11 17 6 9 - - 0.0
17/12:30am 7.2 4.2 4.3 82 1.3 NW 9 17 5 9 - - 0.0
17/12:00am 7.3 4.0 4.4 82 1.3 NW 11 17 6 9 - - 0.0
 
Date/Time
CST
Temp
°C
App
Temp
°C
Dew
Point
°C
Rel
Hum
%
Delta-T
°C
Wind Press
QNH
hPa
Press
MSL
hPa
Rain since
9am
mm
Dir  Spd
km/h
Gust
km/h
Spd
kts
Gust
kts
16/11:30pm 7.8 4.6 5.1 83 1.2 NW 11 17 6 9 - - 0.0
16/11:00pm 8.1 4.9 5.0 81 1.4 NW 11 22 6 12 - - 0.0
16/10:30pm 8.3 5.1 4.9 79 1.6 NNW 11 20 6 11 - - 0.0
16/10:00pm 8.5 4.9 4.9 78 1.7 NNW 13 19 7 10 - - 0.0
16/09:30pm 8.6 5.7 4.8 77 1.8 NNW 9 17 5 9 - - 0.0
16/09:00pm 8.6 5.4 5.0 78 1.7 NNW 11 19 6 10 - - 0.0
16/08:30pm 8.7 5.8 4.9 77 1.8 N 9 17 5 9 - - 0.0
16/08:00pm 8.7 6.2 4.9 77 1.8 N 7 15 4 8 - - 0.0
16/07:30pm 8.7 6.2 4.7 76 1.8 N 7 11 4 6 - - 0.0
16/07:00pm 8.6 6.3 5.0 78 1.7 NNE 6 9 3 5 - - 0.0
16/06:30pm 8.7 6.5 5.1 78 1.7 NNE 6 9 3 5 - - 0.0
16/06:00pm 8.5 6.0 3.9 73 2.1 N 6 7 3 4 - - 0.0
16/05:30pm 8.0 6.0 4.4 78 1.6 NW 4 6 2 3 - - 0.0
16/05:00pm 9.0 6.7 4.8 75 1.9 NW 6 7 3 4 - - 0.0
16/04:30pm 9.9 7.5 4.3 68 2.6 WNW 6 9 3 5 - - 0.0
16/04:00pm 10.7 8.5 5.5 70 2.5 NW 6 9 3 5 - - 0.0
16/03:30pm 9.9 7.5 5.3 73 2.2 NW 7 13 4 7 - - 0.0
16/03:00pm 11.3 9.7 6.2 71 2.5 WNW 4 7 2 4 - - 0.0
16/02:30pm 10.4 8.3 6.0 74 2.1 WNW 6 11 3 6 - - 0.0
16/02:00pm 10.5 7.9 6.1 74 2.1 NW 9 15 5 8 - - 0.0
16/01:30pm 10.8 8.0 5.3 69 2.6 NW 9 19 5 10 - - 0.0
16/01:00pm 10.6 8.4 6.4 75 2.0 WNW 7 17 4 9 - - 0.0
16/12:30pm 10.4 7.7 5.6 72 2.3 WNW 9 17 5 9 - - 0.0
16/12:00pm 10.1 7.1 6.1 76 1.9 WNW 11 17 6 9 - - 0.0
16/11:30am 10.1 7.4 5.7 74 2.1 NW 9 15 5 8 - - 0.0
16/11:00am 10.0 8.0 6.2 77 1.8 WNW 6 11 3 6 - - 0.0
16/10:30am 9.7 7.7 6.4 80 1.6 NW 6 9 3 5 - - 0.0
16/10:00am 9.2 7.1 5.9 80 1.6 NW 6 9 3 5 - - 0.0
16/09:30am 8.7 6.3 5.1 78 1.7 NNW 7 15 4 8 - - 0.0
16/09:00am 8.4 5.4 4.0 74 2.0 NW 9 15 5 8 - - 1.6
16/08:30am 8.1 5.1 3.9 75 1.9 NW 9 17 5 9 - - 1.6
16/08:00am 7.9 4.8 3.6 74 1.9 NNW 9 17 5 9 - - 1.6
16/07:30am 8.0 4.5 3.7 74 1.9 N 11 19 6 10 - - 1.6
16/07:00am 7.9 4.8 3.8 75 1.8 N 9 15 5 8 - - 1.6
16/06:30am 7.8 4.7 3.8 76 1.8 N 9 17 5 9 - - 1.6
16/06:00am 7.9 4.9 4.1 77 1.7 N 9 17 5 9 - - 1.6
16/05:30am 7.8 4.8 4.2 78 1.6 N 9 15 5 8 - - 1.6
16/05:00am 7.7 4.8 4.5 80 1.5 N 9 13 5 7 - - 1.6
16/04:30am 7.7 4.4 4.5 80 1.5 NNW 11 17 6 9 - - 1.6
16/04:00am 7.7 4.8 4.5 80 1.5 NNW 9 19 5 10 - - 1.6
16/03:30am 7.8 4.5 4.4 79 1.5 NNW 11 17 6 9 - - 1.6
16/03:00am 7.8 4.9 4.9 82 1.3 N 9 15 5 8 - - 1.6
16/02:30am 7.6 4.8 5.1 84 1.2 NNW 9 15 5 8 - - 1.6
16/02:00am 7.6 4.4 5.1 84 1.2 NW 11 19 6 10 - - 1.6
16/01:30am 7.6 4.4 4.9 83 1.2 NW 11 20 6 11 - - 1.6
16/01:00am 7.2 3.6 4.9 85 1.1 NW 13 20 7 11 - - 1.6
16/12:30am 8.0 4.3 4.2 77 1.7 NW 13 22 7 12 - - 1.6
16/12:00am 8.2 4.4 4.0 75 1.9 NW 13 19 7 10 - - 1.6
 
Date/Time
CST
Temp
°C
App
Temp
°C
Dew
Point
°C
Rel
Hum
%
Delta-T
°C
Wind Press
QNH
hPa
Press
MSL
hPa
Rain since
9am
mm
Dir  Spd
km/h
Gust
km/h
Spd
kts
Gust
kts
15/11:30pm 8.3 4.9 3.9 74 2.0 NW 11 20 6 11 - - 1.6
15/11:00pm 8.5 4.7 3.9 73 2.1 NNW 13 24 7 13 - - 1.6
15/10:30pm 8.3 4.5 3.9 74 2.0 NNW 13 22 7 12 - - 1.6
15/10:00pm 8.1 4.9 4.9 80 1.5 NNW 11 20 6 11 - - 1.6
15/09:30pm 8.1 5.1 5.9 86 1.0 NW 11 20 6 11 - - 1.6
15/09:00pm 8.3 5.4 6.6 89 0.8 NW 11 17 6 9 - - 1.6
15/08:30pm 8.4 5.8 7.8 96 0.3 NW 11 19 6 10 - - 1.6
15/08:00pm 8.6 6.1 8.2 97 0.2 NW 11 22 6 12 - - 1.6
15/07:30pm 8.6 6.5 8.3 98 0.2 NW 9 19 5 10 - - 1.6
15/07:00pm 7.9 6.1 7.8 99 0.0 NW 7 15 4 8 - - 1.6
15/06:30pm 7.7 5.4 7.6 99 0.0 NW 9 17 5 9 - - 1.6
15/06:00pm 8.0 5.4 7.9 99 0.0 NW 11 20 6 11 - - 1.6
15/05:30pm 8.3 5.4 8.3 100 0.0 WNW 13 22 7 12 - - 1.6
15/05:00pm 8.6 6.2 8.6 100 0.0 WNW 11 20 6 11 - - 1.6
15/04:30pm 8.5 5.7 8.5 100 0.0 WNW 13 22 7 12 - - 1.6
15/04:00pm 8.9 6.2 8.9 100 0.0 WNW 13 20 7 11 - - 1.6
15/03:30pm 8.7 6.7 8.7 100 0.0 WNW 9 17 5 9 - - 1.6
15/03:00pm 8.7 5.6 8.7 100 0.0 WNW 15 22 8 12 - - 1.4
15/02:30pm 8.9 5.8 8.9 100 0.0 WNW 15 26 8 14 - - 1.4
15/02:00pm 9.1 6.8 9.1 100 0.0 WNW 11 19 6 10 - - 0.0
15/01:30pm 8.8 6.1 8.8 100 0.0 NW 13 24 7 13 - - 0.0
15/01:00pm 8.9 6.6 8.9 100 0.0 WNW 11 20 6 11 - - 0.0
15/12:30pm 9.0 6.7 9.0 100 0.0 WNW 11 20 6 11 - - 0.0
15/12:00pm 8.8 6.8 8.8 100 0.0 NW 9 17 5 9 - - 0.0
15/11:30am 8.7 6.3 8.7 100 0.0 WNW 11 20 6 11 - - 0.0
15/11:00am 8.8 6.1 8.8 100 0.0 WNW 13 22 7 12 - - 0.0

Latest Capital City Observations: Canberra | Sydney | Melbourne | Brisbane | Adelaide | Perth | Hobart | Darwin

Other formats

Comma delimited format used in spreadsheet applications
http://www.bom.gov.au/fwo/IDS60901/IDS60901.95678.axf

JavaScript Object Notation format (JSON) in row-major order
http://www.bom.gov.au/fwo/IDS60901/IDS60901.95678.json

Data quality

Most of these data are generated automatically and are frequently updated. Quality checks on data are not normally performed. It is possible for incorrect values to appear. Refer to information at About Latest Weather Observations and please check the disclaimer before using these data.